createdAt,value
2019-03-28T00:00:59.857Z,27.73
2019-03-28T00:05:58.109Z,24.07
2019-03-28T00:08:28.323Z,32.80
2019-03-28T00:10:58.389Z,24.43
2019-03-28T00:13:28.282Z,26.87
2019-03-28T00:15:59.995Z,28.30
2019-03-28T00:18:29.908Z,31.50
2019-03-28T00:20:59.775Z,31.80
2019-03-28T00:23:31.314Z,31.68
2019-03-28T00:26:01.973Z,27.80
2019-03-28T00:28:31.883Z,30.25
2019-03-28T00:31:01.751Z,26.62
2019-03-28T00:33:31.997Z,27.32
2019-03-28T00:36:01.847Z,28.17
2019-03-28T00:38:31.790Z,25.35
2019-03-28T00:41:01.707Z,28.65
2019-03-28T00:43:31.606Z,29.25
2019-03-28T00:46:01.884Z,22.73
2019-03-28T00:48:31.816Z,26.70
2019-03-28T00:51:02.508Z,28.80
2019-03-28T00:53:32.425Z,27.80
2019-03-28T00:56:03.401Z,22.93
2019-03-28T00:58:34.138Z,29.07
2019-03-28T01:01:03.807Z,29.50
2019-03-28T01:03:34.459Z,28.02
2019-03-28T01:06:03.741Z,32.13
2019-03-28T01:08:33.666Z,23.35
2019-03-28T01:11:03.567Z,27.27
2019-03-28T01:13:33.509Z,26.17
2019-03-28T01:16:03.419Z,25.97
2019-03-28T01:18:33.297Z,23.55
2019-03-28T01:21:03.192Z,23.67
2019-03-28T01:23:33.076Z,23.92
2019-03-28T01:26:03.012Z,23.77
2019-03-28T01:28:32.889Z,24.10
2019-03-28T01:31:02.831Z,26.50
2019-03-28T01:33:32.710Z,27.80
2019-03-28T01:36:02.652Z,25.52
2019-03-28T01:38:33.424Z,25.35
2019-03-28T01:41:03.100Z,25.52
2019-03-28T01:43:33.082Z,24.70
2019-03-28T01:46:03.019Z,25.68
2019-03-28T01:48:33.242Z,25.62
2019-03-28T01:51:03.293Z,31.17
2019-03-28T01:53:34.750Z,29.35
2019-03-28T01:56:04.136Z,30.95
2019-03-28T01:58:34.064Z,26.52
2019-03-28T02:01:04.313Z,28.27
2019-03-28T02:03:34.291Z,35.58
2019-03-28T02:06:04.195Z,31.75
2019-03-28T02:08:34.054Z,32.80
2019-03-28T02:11:04.571Z,31.00
2019-03-28T02:13:34.455Z,25.05
2019-03-28T02:16:04.741Z,23.87
2019-03-28T02:18:34.621Z,25.52
2019-03-28T02:21:04.569Z,23.57
2019-03-28T02:23:34.524Z,25.20
2019-03-28T02:26:04.450Z,23.32
2019-03-28T02:28:34.344Z,25.25
2019-03-28T02:31:04.744Z,29.55
2019-03-28T02:33:34.643Z,25.02
2019-03-28T02:36:04.585Z,20.57
2019-03-28T02:38:34.502Z,21.93
2019-03-28T02:41:04.806Z,17.98
2019-03-28T02:43:34.937Z,23.55
2019-03-28T02:46:04.861Z,20.60
2019-03-28T02:48:34.736Z,20.97
2019-03-28T02:51:05.641Z,19.87
2019-03-28T02:53:35.251Z,21.07
2019-03-28T02:56:05.271Z,20.10
2019-03-28T02:58:35.162Z,20.60
2019-03-28T03:01:05.404Z,19.27
2019-03-28T03:03:35.280Z,18.87
2019-03-28T03:06:05.181Z,17.75
2019-03-28T03:08:35.994Z,15.32
2019-03-28T03:11:05.675Z,16.45
2019-03-28T03:13:36.118Z,15.53
2019-03-28T03:16:06.039Z,16.05
2019-03-28T03:18:35.883Z,13.30
2019-03-28T03:21:05.811Z,14.93
2019-03-28T03:23:35.666Z,13.08
2019-03-28T03:26:05.570Z,13.32
2019-03-28T03:28:35.443Z,13.03
2019-03-28T03:31:05.319Z,13.10
2019-03-28T03:33:37.096Z,12.20
2019-03-28T03:38:36.942Z,13.28
2019-03-28T03:41:07.285Z,13.83
2019-03-28T03:43:41.267Z,12.68
2019-03-28T03:46:11.179Z,11.15
2019-03-28T03:48:41.030Z,11.70
2019-03-28T03:51:10.932Z,10.58
2019-03-28T03:53:40.786Z,10.65
2019-03-28T03:56:10.697Z,7.80
2019-03-28T03:58:40.559Z,9.03
2019-03-28T04:01:10.992Z,9.40
2019-03-28T04:03:41.839Z,8.43
2019-03-28T04:06:11.507Z,5.97
2019-03-28T04:08:41.369Z,6.72
2019-03-28T04:11:11.275Z,5.12
2019-03-28T04:13:41.132Z,6.65
2019-03-28T04:16:11.022Z,7.35
2019-03-28T04:18:40.911Z,4.90
2019-03-28T04:21:10.792Z,5.03
2019-03-28T04:23:40.761Z,5.85
2019-03-28T04:26:10.785Z,6.33
2019-03-28T04:28:40.703Z,6.65
2019-03-28T04:31:11.298Z,4.08
2019-03-28T04:33:41.214Z,5.80
2019-03-28T04:36:11.107Z,5.47
2019-03-28T04:38:40.990Z,5.67
2019-03-28T04:41:10.919Z,4.42
2019-03-28T04:43:40.783Z,7.42
2019-03-28T04:46:11.065Z,4.90
2019-03-28T04:48:42.001Z,4.85
2019-03-28T04:51:11.876Z,4.67
2019-03-28T04:53:42.949Z,5.78
2019-03-28T04:56:12.663Z,5.15
2019-03-28T04:58:44.676Z,4.55
2019-03-28T05:03:43.036Z,7.30
2019-03-28T05:06:12.916Z,7.83
2019-03-28T05:08:42.847Z,7.72
2019-03-28T05:11:12.768Z,5.72
2019-03-28T05:13:42.678Z,7.45
2019-03-28T05:16:12.578Z,7.28
2019-03-28T05:18:42.496Z,5.83
2019-03-28T05:21:14.493Z,11.45
2019-03-28T05:23:44.365Z,8.20
2019-03-28T05:26:14.320Z,17.87
2019-03-28T05:28:56.593Z,6.30
2019-03-28T05:33:44.148Z,8.28
2019-03-28T05:36:14.054Z,6.90
2019-03-28T05:38:44.206Z,7.87
2019-03-28T05:41:17.188Z,8.68
2019-03-28T05:46:16.427Z,15.55
2019-03-28T05:48:46.040Z,30.70
2019-03-28T05:51:16.028Z,41.65
2019-03-28T05:53:46.522Z,43.20
2019-03-28T05:56:16.029Z,50.73
2019-03-28T05:58:45.975Z,58.65
2019-03-28T06:01:16.658Z,39.88
2019-03-28T06:03:46.562Z,17.35
2019-03-28T06:06:20.266Z,10.13
2019-03-28T06:08:50.138Z,11.08
2019-03-28T06:11:20.104Z,12.10
2019-03-28T06:13:50.010Z,8.93
2019-03-28T06:16:20.388Z,11.80
2019-03-28T06:18:52.326Z,10.75
2019-03-28T06:21:22.269Z,13.78
2019-03-28T06:23:52.381Z,14.47
2019-03-28T06:26:22.368Z,12.28
2019-03-28T06:28:52.713Z,14.50
2019-03-28T06:31:22.650Z,20.05
2019-03-28T06:33:53.173Z,15.98
2019-03-28T06:36:23.068Z,10.25
2019-03-28T06:38:52.907Z,9.40
2019-03-28T06:41:23.285Z,10.20
2019-03-28T06:43:53.356Z,9.00
2019-03-28T06:46:24.724Z,9.25
2019-03-28T06:48:54.297Z,11.20
2019-03-28T06:51:24.186Z,11.85
2019-03-28T06:53:56.992Z,9.75
2019-03-28T06:58:54.956Z,14.43
2019-03-28T07:01:24.831Z,14.28
2019-03-28T07:03:55.598Z,9.43
2019-03-28T07:06:26.225Z,10.98
2019-03-28T07:08:56.143Z,14.07
2019-03-28T07:11:25.989Z,34.30
2019-03-28T07:13:55.962Z,37.03
2019-03-28T07:16:25.832Z,96.17
2019-03-28T07:18:55.759Z,77.12
2019-03-28T07:21:27.193Z,36.30
2019-03-28T07:23:56.804Z,12.90
2019-03-28T07:26:26.686Z,64.42
2019-03-28T07:28:57.734Z,31.75
2019-03-28T07:31:27.770Z,15.08
2019-03-28T07:33:57.690Z,41.13
2019-03-28T07:36:27.551Z,37.17
2019-03-28T07:38:58.831Z,24.45
2019-03-28T07:41:28.697Z,26.33
2019-03-28T07:43:58.621Z,24.30
2019-03-28T07:46:28.787Z,29.32
2019-03-28T07:48:58.712Z,56.25
2019-03-28T07:51:28.597Z,26.57
2019-03-28T07:53:58.645Z,15.58
2019-03-28T07:56:28.504Z,19.60
2019-03-28T07:58:58.394Z,27.30
2019-03-28T08:01:28.307Z,28.05
2019-03-28T08:03:58.165Z,18.62
2019-03-28T08:06:28.071Z,19.25
2019-03-28T08:08:57.952Z,19.85
2019-03-28T08:11:28.297Z,24.57
2019-03-28T08:13:58.407Z,77.17
2019-03-28T08:16:29.025Z,41.70
2019-03-28T08:18:58.796Z,34.87
2019-03-28T08:21:28.744Z,19.52
2019-03-28T08:23:58.585Z,16.25
2019-03-28T08:26:30.220Z,13.55
2019-03-28T08:31:27.934Z,16.07
2019-03-28T08:34:01.734Z,16.05
2019-03-28T08:36:29.504Z,17.67
2019-03-28T08:38:59.381Z,12.05
2019-03-28T08:41:29.262Z,18.07
2019-03-28T08:43:59.127Z,21.45
2019-03-28T08:46:29.332Z,25.62
2019-03-28T08:48:59.189Z,14.03
2019-03-28T08:51:29.431Z,12.70
2019-03-28T08:53:59.315Z,134.07
2019-03-28T08:56:29.261Z,81.55
2019-03-28T08:58:59.128Z,45.67
2019-03-28T09:01:29.020Z,40.78
2019-03-28T09:03:59.292Z,81.10
2019-03-28T09:06:29.157Z,66.05
2019-03-28T09:08:59.071Z,100.50
2019-03-28T09:11:29.961Z,33.92
2019-03-28T09:14:01.057Z,54.08
2019-03-28T09:16:30.604Z,63.80
2019-03-28T09:19:00.505Z,128.35
2019-03-28T09:21:30.737Z,73.28
2019-03-28T09:24:00.601Z,31.97
2019-03-28T09:26:30.513Z,12.20
2019-03-28T09:29:00.819Z,19.95
2019-03-28T09:31:30.717Z,19.27
2019-03-28T09:34:00.570Z,18.67
2019-03-28T09:36:30.842Z,12.98
2019-03-28T09:39:00.728Z,10.15
2019-03-28T09:41:30.650Z,7.67
2019-03-28T09:44:00.499Z,15.30
2019-03-28T09:46:30.643Z,8.53
2019-03-28T09:49:00.496Z,13.58
2019-03-28T09:51:30.380Z,15.32
2019-03-28T09:54:00.257Z,9.95
2019-03-28T09:56:30.103Z,14.35
2019-03-28T09:59:02.255Z,10.20
2019-03-28T10:01:32.091Z,8.08
2019-03-28T10:04:02.381Z,9.68
2019-03-28T10:06:32.938Z,10.28
2019-03-28T10:09:02.935Z,13.48
2019-03-28T10:11:33.013Z,38.40
2019-03-28T10:14:02.890Z,11.68
2019-03-28T10:16:32.759Z,9.90
2019-03-28T10:19:02.642Z,10.00
2019-03-28T10:21:32.549Z,9.35
2019-03-28T10:24:02.820Z,13.83
2019-03-28T10:26:32.728Z,7.20
2019-03-28T10:29:02.592Z,12.35
2019-03-28T10:31:32.962Z,6.65
2019-03-28T10:34:02.821Z,18.27
2019-03-28T10:36:32.796Z,21.70
2019-03-28T10:39:03.194Z,13.88
2019-03-28T10:41:34.066Z,109.55
2019-03-28T10:44:03.724Z,113.12
2019-03-28T10:46:33.979Z,36.25
2019-03-28T10:49:03.873Z,46.13
2019-03-28T10:51:33.719Z,10.35
2019-03-28T10:54:03.608Z,11.53
2019-03-28T10:56:33.471Z,27.25
2019-03-28T10:59:03.386Z,33.38
2019-03-28T11:01:48.057Z,15.45
2019-03-28T11:04:04.337Z,10.03
2019-03-28T11:06:34.220Z,11.57
2019-03-28T11:09:05.961Z,13.62
2019-03-28T11:11:35.802Z,7.72
2019-03-28T11:14:05.699Z,7.40
2019-03-28T11:16:37.221Z,6.87
2019-03-28T11:21:35.047Z,31.15
2019-03-28T11:24:05.414Z,18.37
2019-03-28T11:26:35.406Z,21.90
2019-03-28T11:29:05.287Z,40.85
2019-03-28T11:31:45.575Z,85.03
2019-03-28T11:36:35.209Z,23.12
2019-03-28T11:39:06.680Z,24.77
2019-03-28T11:41:36.241Z,32.28
2019-03-28T11:44:06.228Z,31.45
2019-03-28T11:46:36.281Z,29.00
2019-03-28T11:49:06.207Z,20.88
2019-03-28T11:51:36.571Z,29.07
2019-03-28T11:54:06.516Z,9.68
2019-03-28T11:56:36.438Z,13.80
2019-03-28T11:59:06.417Z,8.65
2019-03-28T12:01:36.469Z,8.43
2019-03-28T12:04:06.385Z,36.93
2019-03-28T12:06:36.545Z,14.10
2019-03-28T12:09:07.317Z,10.63
2019-03-28T12:11:37.116Z,6.42
2019-03-28T12:14:07.180Z,8.60
2019-03-28T12:16:37.138Z,40.33
2019-03-28T12:19:07.117Z,24.35
2019-03-28T12:21:36.990Z,17.75
2019-03-28T12:24:06.885Z,8.70
2019-03-28T12:26:37.252Z,12.37
2019-03-28T12:29:07.357Z,7.53
2019-03-28T12:31:37.275Z,9.98
2019-03-28T12:34:07.199Z,11.48
2019-03-28T12:36:37.058Z,6.42
2019-03-28T12:39:06.912Z,9.78
2019-03-28T12:41:37.075Z,8.08
2019-03-28T12:44:06.971Z,8.23
2019-03-28T12:46:37.042Z,7.40
2019-03-28T12:49:07.003Z,22.27
2019-03-28T12:51:36.848Z,10.88
2019-03-28T12:54:06.708Z,34.03
2019-03-28T12:56:36.627Z,25.15
2019-03-28T12:59:06.475Z,7.15
2019-03-28T13:01:36.499Z,36.83
2019-03-28T13:04:06.965Z,18.23
2019-03-28T13:06:36.921Z,7.10
2019-03-28T13:09:08.247Z,5.30
2019-03-28T13:11:37.792Z,4.50
2019-03-28T13:14:07.670Z,7.97
2019-03-28T13:16:37.551Z,10.23
2019-03-28T13:19:07.407Z,4.92
2019-03-28T13:21:37.322Z,4.40
2019-03-28T13:24:07.959Z,9.38
2019-03-28T13:26:37.675Z,5.20
2019-03-28T13:29:07.619Z,5.75
2019-03-28T13:31:37.522Z,4.42
2019-03-28T13:34:07.771Z,5.42
2019-03-28T13:36:37.685Z,6.55
2019-03-28T13:39:07.753Z,5.70
2019-03-28T13:41:37.631Z,5.35
2019-03-28T13:44:07.837Z,7.67
2019-03-28T13:46:38.558Z,11.08
2019-03-28T13:49:08.454Z,16.70
2019-03-28T13:51:38.335Z,29.25
2019-03-28T13:54:08.199Z,5.72
2019-03-28T13:56:38.594Z,3.98
2019-03-28T13:59:08.520Z,6.45
2019-03-28T14:01:39.152Z,7.60
2019-03-28T14:04:09.168Z,7.30
2019-03-28T14:06:39.274Z,8.28
2019-03-28T14:09:09.128Z,7.55
2019-03-28T14:11:39.008Z,4.92
2019-03-28T14:14:08.900Z,5.03
2019-03-28T14:16:38.766Z,9.38
2019-03-28T14:19:08.718Z,5.12
2019-03-28T14:21:38.571Z,5.95
2019-03-28T14:24:11.512Z,5.03
2019-03-28T14:29:07.899Z,5.33
2019-03-28T14:31:38.772Z,7.42
2019-03-28T14:34:08.331Z,9.43
2019-03-28T14:36:38.249Z,16.07
2019-03-28T14:39:08.113Z,8.10
2019-03-28T14:41:37.993Z,8.90
2019-03-28T14:44:09.980Z,6.87
2019-03-28T14:46:39.913Z,16.55
2019-03-28T14:49:09.874Z,8.18
2019-03-28T14:51:40.012Z,11.88
2019-03-28T14:54:09.984Z,20.27
2019-03-28T14:56:39.882Z,61.18
2019-03-28T14:59:09.821Z,9.43
2019-03-28T15:01:39.684Z,8.08
2019-03-28T15:04:11.198Z,19.48
2019-03-28T15:09:09.851Z,17.00
2019-03-28T15:11:39.482Z,8.50
2019-03-28T15:14:09.314Z,11.20
2019-03-28T15:16:39.234Z,9.43
2019-03-28T15:19:09.084Z,9.33
2019-03-28T15:21:39.321Z,11.12
2019-03-28T15:24:09.189Z,11.45
2019-03-28T15:26:39.146Z,11.30
2019-03-28T15:29:09.076Z,255.72
2019-03-28T15:31:39.032Z,119.72
2019-03-28T15:34:08.883Z,50.98
2019-03-28T15:36:41.888Z,19.60
2019-03-28T15:41:39.796Z,11.05
2019-03-28T15:44:09.710Z,11.95
2019-03-28T15:46:39.594Z,14.33
2019-03-28T15:49:09.469Z,10.13
2019-03-28T15:51:39.500Z,19.10
2019-03-28T15:54:09.396Z,14.20
2019-03-28T15:56:39.347Z,21.60
2019-03-28T15:59:09.227Z,20.45
2019-03-28T16:01:39.158Z,20.43
2019-03-28T16:04:09.330Z,12.95
2019-03-28T16:06:39.597Z,18.23
2019-03-28T16:09:09.567Z,18.17
2019-03-28T16:11:39.495Z,22.50
2019-03-28T16:14:09.339Z,13.05
2019-03-28T16:16:42.494Z,14.18
2019-03-28T16:19:12.371Z,27.32
2019-03-28T16:21:42.319Z,23.62
2019-03-28T16:24:12.188Z,15.63
2019-03-28T16:26:42.065Z,14.63
2019-03-28T16:29:11.985Z,19.02
2019-03-28T16:31:41.849Z,19.37
2019-03-28T16:34:12.376Z,20.97
2019-03-28T16:36:42.233Z,28.67
2019-03-28T16:39:12.628Z,45.38
2019-03-28T16:41:43.536Z,58.80
2019-03-28T16:44:13.494Z,90.95
2019-03-28T16:46:43.373Z,70.72
2019-03-28T16:49:13.363Z,148.82
2019-03-28T16:51:43.740Z,87.15
2019-03-28T16:54:14.687Z,48.10
2019-03-28T16:56:44.333Z,36.40
2019-03-28T16:59:14.243Z,27.37
2019-03-28T17:01:44.116Z,26.25
2019-03-28T17:04:20.660Z,38.80
2019-03-28T17:06:47.268Z,33.63
2019-03-28T17:09:17.224Z,38.73
2019-03-28T17:11:47.090Z,32.50
2019-03-28T17:14:17.015Z,50.60
2019-03-28T17:16:46.898Z,48.50
2019-03-28T17:19:17.180Z,52.27
2019-03-28T17:21:48.081Z,52.08
2019-03-28T17:24:17.783Z,47.23
2019-03-28T17:26:47.652Z,50.12
2019-03-28T17:29:17.565Z,71.60
2019-03-28T17:31:47.510Z,82.70
2019-03-28T17:34:19.446Z,62.43
2019-03-28T17:36:49.429Z,92.08
2019-03-28T17:39:19.307Z,78.70
2019-03-28T17:41:49.253Z,149.90
2019-03-28T17:44:19.128Z,108.32
2019-03-28T17:46:49.044Z,179.93
2019-03-28T17:49:18.944Z,241.82
2019-03-28T17:51:50.651Z,168.87
2019-03-28T17:54:20.532Z,147.93
2019-03-28T17:56:50.422Z,129.68
2019-03-28T17:59:20.387Z,117.08
2019-03-28T18:01:50.339Z,114.45
2019-03-28T18:04:23.129Z,128.55
2019-03-28T18:09:21.516Z,156.30
2019-03-28T18:11:51.403Z,406.05
2019-03-28T18:14:21.364Z,271.37
2019-03-28T18:16:51.236Z,218.70
2019-03-28T18:19:21.154Z,289.82
2019-03-28T18:22:02.719Z,267.25
2019-03-28T18:24:22.301Z,337.00
2019-03-28T18:26:52.186Z,377.73
2019-03-28T18:29:22.130Z,352.15
2019-03-28T18:31:53.033Z,318.65
2019-03-28T18:34:22.689Z,339.35
2019-03-28T18:36:52.744Z,321.55
2019-03-28T18:39:22.709Z,323.30
2019-03-28T18:41:52.696Z,281.57
2019-03-28T18:44:22.653Z,549.42
2019-03-28T18:46:52.530Z,492.48
2019-03-28T18:49:22.475Z,480.63
2019-03-28T18:51:52.855Z,429.18
2019-03-28T18:54:22.790Z,364.32
2019-03-28T18:56:52.668Z,153.55
2019-03-28T18:59:23.729Z,121.60
2019-03-28T19:01:53.812Z,127.55
2019-03-28T19:04:23.435Z,126.03
2019-03-28T19:06:53.300Z,134.93
2019-03-28T19:09:23.624Z,178.42
2019-03-28T19:11:56.657Z,751.20
2019-03-28T19:14:26.443Z,207.00
2019-03-28T19:16:57.883Z,175.70
2019-03-28T19:19:39.174Z,779.80
2019-03-28T19:22:00.910Z,748.83
2019-03-28T19:24:30.866Z,415.43
2019-03-28T19:27:01.785Z,423.73
2019-03-28T19:29:31.930Z,318.02
2019-03-28T19:32:01.807Z,261.90
2019-03-28T19:34:35.256Z,174.60
2019-03-28T19:37:05.527Z,80.97
2019-03-28T19:39:36.623Z,94.80
2019-03-28T19:42:06.320Z,94.40
2019-03-28T19:44:36.256Z,75.80
2019-03-28T19:47:06.154Z,97.60
2019-03-28T19:49:36.084Z,98.75
2019-03-28T19:52:06.120Z,112.50
2019-03-28T19:54:36.317Z,135.52
2019-03-28T19:57:06.182Z,126.85
2019-03-28T19:59:37.367Z,114.87
2019-03-28T20:02:07.946Z,84.52
2019-03-28T20:04:37.387Z,51.10
2019-03-28T20:07:20.565Z,76.60
2019-03-28T20:12:06.776Z,160.43
2019-03-28T20:14:36.678Z,215.30
2019-03-28T20:17:06.583Z,264.45
2019-03-28T20:19:37.616Z,157.20
2019-03-28T20:22:07.583Z,121.13
2019-03-28T20:24:37.446Z,139.75
2019-03-28T20:27:07.383Z,134.57
2019-03-28T20:29:39.805Z,113.60
2019-03-28T20:32:09.472Z,100.75
2019-03-28T20:34:39.243Z,134.35
2019-03-28T20:37:09.899Z,173.02
2019-03-28T20:39:39.738Z,106.75
2019-03-28T20:42:09.412Z,90.37
2019-03-28T20:44:41.261Z,207.92
2019-03-28T20:47:11.189Z,244.07
2019-03-28T20:49:41.072Z,316.77
2019-03-28T20:52:11.315Z,263.32
2019-03-28T20:54:41.216Z,228.18
2019-03-28T20:57:11.249Z,138.97
2019-03-28T20:59:41.113Z,129.47
2019-03-28T21:02:11.048Z,231.80
2019-03-28T21:04:43.990Z,289.45
2019-03-28T21:07:20.323Z,294.21
2019-03-28T21:09:50.237Z,260.32
2019-03-28T21:12:20.188Z,268.90
2019-03-28T21:14:51.519Z,130.72
2019-03-28T21:20:27.059Z,179.25
2019-03-28T21:25:29.660Z,369.50
2019-03-28T21:28:01.114Z,361.95
2019-03-28T21:30:30.451Z,233.87
2019-03-28T21:33:55.065Z,149.77
2019-03-28T21:36:30.018Z,85.20
2019-03-28T21:38:58.255Z,93.60
2019-03-28T21:41:28.188Z,84.25
2019-03-28T21:44:00.248Z,82.10
2019-03-28T21:46:30.184Z,84.35
2019-03-28T21:49:00.063Z,89.50
2019-03-28T21:51:29.989Z,89.80
2019-03-28T21:54:00.208Z,98.10
2019-03-28T21:56:30.114Z,98.70
2019-03-28T21:59:00.018Z,92.35
2019-03-28T22:01:29.992Z,100.80
2019-03-28T22:03:59.917Z,92.05
2019-03-28T22:06:42.106Z,95.92
2019-03-28T22:09:01.139Z,91.90
2019-03-28T22:11:31.612Z,80.32
2019-03-28T22:14:01.592Z,71.33
2019-03-28T22:16:32.634Z,85.07
2019-03-28T22:19:05.106Z,95.45
2019-03-28T22:21:33.856Z,72.08
2019-03-28T22:24:03.776Z,76.77
2019-03-28T22:26:33.642Z,73.87
2019-03-28T22:29:03.542Z,79.15
2019-03-28T22:31:33.435Z,73.42
2019-03-28T22:34:03.304Z,123.60
2019-03-28T22:36:33.626Z,104.45
2019-03-28T22:39:05.120Z,75.17
2019-03-28T22:41:35.548Z,79.47
2019-03-28T22:44:05.157Z,87.17
2019-03-28T22:46:35.271Z,70.62
2019-03-28T22:51:35.267Z,69.27
2019-03-28T22:54:20.093Z,67.80
2019-03-28T22:56:50.499Z,68.55
2019-03-28T22:59:20.360Z,69.03
2019-03-28T23:01:50.323Z,70.80
2019-03-28T23:04:21.112Z,68.25
2019-03-28T23:06:50.792Z,70.28
2019-03-28T23:09:21.466Z,51.08
2019-03-28T23:11:51.376Z,61.77
2019-03-28T23:14:21.347Z,60.78
2019-03-28T23:16:51.280Z,64.90
2019-03-28T23:19:21.138Z,65.75
2019-03-28T23:21:51.399Z,61.85
2019-03-28T23:24:21.303Z,60.83
2019-03-28T23:26:51.206Z,54.90
2019-03-28T23:29:21.072Z,56.48
2019-03-28T23:31:51.029Z,58.08
2019-03-28T23:34:22.233Z,55.70
2019-03-28T23:36:53.841Z,54.15
2019-03-28T23:39:23.405Z,56.98
2019-03-28T23:41:53.355Z,50.95
2019-03-28T23:44:23.220Z,55.78
2019-03-28T23:46:54.715Z,49.53
2019-03-28T23:49:24.536Z,50.43
2019-03-28T23:51:54.443Z,48.30
2019-03-28T23:54:24.341Z,47.48
2019-03-28T23:56:54.246Z,45.60
2019-03-28T23:59:24.120Z,46.48
